Time;durP1;ratioP1;P1;durP2;ratioP2;P2;SDS_P1;SDS_P2;PMS_P1;PMS_P2;Temp;Humidity;BMP_temperature;BMP_pressure;BME280_temperature;BME280_humidity;BME280_pressure;Samples;Min_cycle;Max_cycle;Signal;HPM_P1;HPM_P2
2024/03/13 00:00:13;;;;;;;20.00;10.30;;;;;;;6.25;83.33;98617.67;108128;1237;97819;-81
2024/03/13 00:03:00;;;;;;;15.80;9.40;;;;;;;6.24;83.40;98620.00;107977;1234;112592;-81
2024/03/13 00:05:29;;;;;;;18.00;10.30;;;;;;;6.24;83.35;98620.55;107844;1237;96600;-81
2024/03/13 00:07:55;;;;;;;16.80;8.90;;;;;;;6.23;83.31;98621.29;108065;1245;105992;-82
2024/03/13 00:10:22;;;;;;;18.70;9.20;;;;;;;6.24;83.35;98620.86;107874;1237;97052;-81
2024/03/13 00:12:50;;;;;;;23.50;10.50;;;;;;;6.24;83.19;98618.77;108100;1244;96580;-82
2024/03/13 00:15:16;;;;;;;20.00;9.70;;;;;;;6.23;83.16;98615.30;108125;1239;96389;-81
2024/03/13 00:17:44;;;;;;;;;;;;;;;6.24;83.14;98617.02;108112;1233;97499;-82
2024/03/13 00:20:12;;;;;;;14.40;7.50;;;;;;;6.20;83.17;98618.30;107961;1240;96663;-82
2024/03/13 00:22:40;;;;;;;19.90;8.50;;;;;;;6.17;83.25;98615.31;108064;1237;96581;-81
2024/03/13 00:25:14;;;;;;;17.10;8.80;;;;;;;6.15;83.29;98615.27;108315;1238;97271;-80
2024/03/13 00:27:41;;;;;;;19.50;9.90;;;;;;;6.16;83.51;98618.73;108212;1238;109446;-82
2024/03/13 00:30:08;;;;;;;19.50;9.60;;;;;;;6.15;83.27;98619.17;108063;1234;96622;-82
2024/03/13 11:03:34;;;;;;;11.00;5.80;;;;;;;5.10;84.06;98988.27;102244;1296;636192;-73
2024/03/13 11:06:04;;;;;;;45.50;14.20;;;;;;;5.08;84.04;98993.09;104609;1267;94258;-73
2024/03/13 11:08:32;;;;;;;68.50;26.90;;;;;;;5.06;83.91;98989.86;104849;1268;94359;-73
2024/03/13 11:11:01;;;;;;;46.70;18.60;;;;;;;5.01;83.90;98990.11;104593;1267;108401;-72
2024/03/13 11:13:54;;;;;;;20.40;8.60;;;;;;;5.00;84.15;98991.91;105021;1257;95296;-73
2024/03/13 11:16:23;;;;;;;9.20;5.20;;;;;;;4.97;83.96;98990.34;105297;1251;186023;-73
2024/03/13 11:18:52;;;;;;;11.30;4.70;;;;;;;4.91;83.94;98990.23;105338;1254;95173;-73
2024/03/13 11:21:26;;;;;;;7.70;4.30;;;;;;;4.89;83.93;98989.98;105481;1254;94757;-73
2024/03/13 11:24:02;;;;;;;4.80;3.50;;;;;;;4.89;83.99;98986.48;105441;1251;105156;-73
2024/03/13 11:26:37;;;;;;;4.70;3.00;;;;;;;4.90;84.07;98987.67;105222;1251;95758;-73
2024/03/13 11:29:06;;;;;;;9.00;4.90;;;;;;;4.92;84.07;98987.23;105482;1251;107599;-72
2024/03/13 11:31:34;;;;;;;5.00;3.40;;;;;;;4.96;84.12;98984.42;105294;1255;95318;-72
2024/03/13 11:34:02;;;;;;;4.10;2.90;;;;;;;4.99;84.14;98982.83;105435;1254;95211;-73
2024/03/13 11:36:30;;;;;;;7.60;4.10;;;;;;;5.02;84.07;98982.88;105493;1254;108616;-73
2024/03/13 11:38:58;;;;;;;4.90;3.10;;;;;;;5.05;83.97;98980.08;105639;1256;95517;-72
2024/03/13 11:41:27;;;;;;;4.50;2.80;;;;;;;5.09;84.08;98984.08;105277;1256;107326;-74
2024/03/13 11:43:58;;;;;;;3.50;2.50;;;;;;;5.12;84.04;98984.83;105415;1252;95291;-73
2024/03/13 11:46:48;;;;;;;4.10;2.40;;;;;;;5.14;84.00;98988.24;105535;1252;95169;-73
2024/03/13 11:49:17;;;;;;;4.70;2.70;;;;;;;5.13;84.00;98990.71;105055;1258;108298;-73
2024/03/13 11:52:01;;;;;;;4.40;2.90;;;;;;;5.13;84.01;98993.36;105399;1256;95478;-73
2024/03/13 11:54:30;;;;;;;4.20;2.50;;;;;;;5.14;83.96;98990.66;105130;1253;107751;-73
2024/03/13 11:57:15;;;;;;;11.10;4.50;;;;;;;5.16;83.92;98991.99;105691;1256;96117;-74
2024/03/13 11:59:51;;;;;;;6.00;3.20;;;;;;;5.16;83.91;98997.08;105199;1256;95329;-73
2024/03/13 12:02:28;;;;;;;6.50;4.30;;;;;;;5.11;83.68;98995.75;105634;1256;108146;-74
2024/03/13 12:05:12;;;;;;;5.50;3.60;;;;;;;5.08;83.70;98997.52;105370;1256;95437;-73
2024/03/13 12:07:42;;;;;;;12.10;5.40;;;;;;;5.04;83.60;98992.79;107746;1252;107928;-74
2024/03/13 12:10:25;;;;;;;7.10;3.90;;;;;;;5.03;83.51;98994.23;105595;1257;95246;-74
2024/03/13 12:12:53;;;;;;;5.50;3.50;;;;;;;5.02;83.73;98994.79;105830;1256;95230;-74
2024/03/13 12:15:21;;;;;;;5.70;3.20;;;;;;;5.04;83.53;98995.23;105868;1256;108254;-74
2024/03/13 12:17:50;;;;;;;10.60;4.80;;;;;;;5.04;83.50;98997.88;105332;1253;95263;-73
2024/03/13 12:20:24;;;;;;;14.40;5.40;;;;;;;5.04;83.57;98997.52;105214;1256;107306;-73
2024/03/13 12:22:52;;;;;;;20.20;7.00;;;;;;;5.02;83.52;99000.06;105252;1256;95235;-73
2024/03/13 12:25:20;;;;;;;33.80;9.50;;;;;;;5.00;83.50;98998.40;105312;1254;95250;-73
2024/03/13 12:27:52;;;;;;;28.40;8.50;;;;;;;4.99;83.31;98999.34;105576;1253;107663;-73
2024/03/13 12:30:20;;;;;;;16.80;5.40;;;;;;;4.98;83.39;98997.67;105407;1256;95666;-73
2024/03/13 12:32:58;;;;;;;12.40;5.20;;;;;;;4.99;83.54;98996.90;105557;1259;107144;-74
2024/03/13 12:35:26;;;;;;;7.90;3.90;;;;;;;4.99;83.43;98996.34;105253;1256;95404;-72
2024/03/13 12:37:57;;;;;;;19.90;6.70;;;;;;;4.99;83.49;98995.85;105180;1269;95234;-73
2024/03/13 12:40:26;;;;;;;6.30;3.80;;;;;;;5.00;83.49;98997.02;105541;1256;108258;-74
2024/03/13 12:42:54;;;;;;;7.20;3.20;;;;;;;5.00;83.33;98998.94;105275;1253;95330;-73
2024/03/13 12:45:22;;;;;;;28.60;7.80;;;;;;;5.00;83.56;98997.87;105307;1275;107354;-73
2024/03/13 12:47:50;;;;;;;12.20;5.70;;;;;;;5.02;83.37;98998.31;105498;1256;95289;-73
2024/03/13 12:50:18;;;;;;;12.40;5.50;;;;;;;5.03;83.43;98994.20;105452;1253;95759;-72
2024/03/13 12:52:47;;;;;;;25.60;13.00;;;;;;;5.06;83.52;98993.20;105331;1253;108262;-73
2024/03/13 12:55:16;;;;;;;11.50;5.60;;;;;;;5.10;83.30;98997.91;105416;1255;96220;-72
2024/03/13 12:57:47;;;;;;;8.70;3.60;;;;;;;5.12;83.34;98993.26;105318;1256;107357;-73
2024/03/13 13:00:18;;;;;;;5.40;3.10;;;;;;;5.13;83.25;98991.60;105314;1252;96164;-72
2024/03/13 13:02:53;;;;;;;7.60;4.30;;;;;;;5.19;83.28;98994.13;105305;1255;96156;-72
2024/03/13 13:05:21;;;;;;;6.50;4.50;;;;;;;5.20;83.40;98991.96;105488;1252;108618;-73
2024/03/13 13:07:55;;;;;;;4.70;3.20;;;;;;;5.19;83.17;98997.27;105525;1252;95535;-72
2024/03/13 13:10:25;;;;;;;13.20;8.30;;;;;;;5.19;83.46;98990.39;105163;1257;107542;-72
2024/03/13 13:12:56;;;;;;;6.10;4.40;;;;;;;5.20;83.23;98995.11;105319;1256;95281;-73
2024/03/13 13:15:24;;;;;;;7.20;3.70;;;;;;;5.18;83.11;98991.89;105598;1251;95186;-73
2024/03/13 13:17:53;;;;;;;5.60;4.00;;;;;;;5.16;83.10;98999.04;105266;1257;107982;-72
2024/03/13 13:20:23;;;;;;;4.80;3.20;;;;;;;5.14;83.09;98995.63;105385;1256;95814;-73
2024/03/13 13:22:52;;;;;;;6.40;4.50;;;;;;;5.15;83.12;98993.81;105443;1256;107739;-73
2024/03/13 13:25:26;;;;;;;5.30;3.90;;;;;;;5.18;83.13;98994.00;105356;1256;95185;-73
2024/03/13 13:27:57;;;;;;;4.90;3.00;;;;;;;5.22;83.14;98995.91;105184;1256;95273;-72
2024/03/13 13:30:25;;;;;;;11.70;6.10;;;;;;;5.26;83.15;98992.90;105341;1256;108170;-73
2024/03/13 13:32:54;;;;;;;43.40;15.50;;;;;;;5.27;83.11;98995.46;105497;1253;95447;-73
2024/03/13 13:35:23;;;;;;;22.30;7.30;;;;;;;5.29;82.94;98994.13;105386;1255;107774;-73
2024/03/13 13:37:52;;;;;;;13.30;5.50;;;;;;;5.32;83.00;98990.98;105416;1256;95345;-72
2024/03/13 13:40:20;;;;;;;13.30;5.60;;;;;;;5.32;82.99;98991.17;105421;1256;96154;-73
2024/03/13 13:42:52;;;;;;;9.50;4.90;;;;;;;5.31;82.93;98994.02;105239;1251;106792;-73
2024/03/13 13:45:23;;;;;;;7.80;4.60;;;;;;;5.31;83.05;98992.61;105394;1256;95438;-73
2024/03/13 13:47:53;;;;;;;6.60;4.30;;;;;;;5.32;83.03;98997.47;105277;1256;107335;-72
2024/03/13 13:50:22;;;;;;;5.80;3.50;;;;;;;5.32;82.92;98997.52;105397;1253;95356;-72
2024/03/13 13:52:50;;;;;;;10.00;5.60;;;;;;;5.29;83.00;98998.55;105379;1255;95257;-73
2024/03/13 13:55:18;;;;;;;6.40;4.40;;;;;;;5.28;82.95;99004.52;105372;1251;108252;-73
2024/03/13 13:57:47;;;;;;;5.10;3.90;;;;;;;5.27;82.86;98999.00;105451;1256;95327;-73
2024/03/13 14:00:21;;;;;;;9.30;6.50;;;;;;;5.26;82.87;99000.42;105351;1258;107618;-73
2024/03/13 14:02:55;;;;;;;5.30;4.30;;;;;;;5.28;82.89;99004.91;105504;1254;95237;-73
2024/03/13 14:05:26;;;;;;;6.50;4.60;;;;;;;5.29;82.95;99003.81;105258;1251;96203;-73
2024/03/13 14:07:55;;;;;;;7.70;4.40;;;;;;;5.28;82.94;99006.47;105292;1254;108280;-72
2024/03/13 14:10:24;;;;;;;6.40;3.80;;;;;;;5.28;82.84;99007.91;105227;1258;95563;-73
2024/03/13 14:12:52;;;;;;;5.10;3.50;;;;;;;5.26;82.57;99010.86;105467;1263;106570;-73
2024/03/13 14:15:21;;;;;;;8.30;5.00;;;;;;;5.22;82.60;99011.89;105383;1256;95290;-73
2024/03/13 14:17:50;;;;;;;10.30;6.80;;;;;;;5.21;82.76;99017.39;105514;1254;95335;-73
2024/03/13 14:20:19;;;;;;;6.50;4.30;;;;;;;5.20;82.79;99020.23;105373;1256;108623;-74
2024/03/13 14:22:51;;;;;;;6.50;4.30;;;;;;;5.17;82.58;99018.49;105178;1256;95237;-74
2024/03/13 14:25:20;;;;;;;9.50;7.10;;;;;;;5.14;82.54;99016.89;105360;1256;108437;-73
2024/03/13 14:27:49;;;;;;;8.20;5.00;;;;;;;5.12;82.49;99020.65;105191;1251;95333;-72
2024/03/13 14:30:17;;;;;;;6.60;3.70;;;;;;;5.12;82.50;99023.46;105319;1253;95340;-73
2024/03/13 14:32:47;;;;;;;7.20;4.60;;;;;;;5.14;82.54;99025.85;105522;1254;106947;-72
2024/03/13 14:35:15;;;;;;;5.20;3.70;;;;;;;5.14;82.56;99023.89;105361;1251;95340;-73
2024/03/13 14:37:45;;;;;;;8.90;5.20;;;;;;;5.14;82.57;99026.19;105220;1251;106043;-75
2024/03/13 14:50:08;;;;;;;;;;;;;;;;;;;;;
2024/03/13 14:53:46;;;;;;;;;;;;;;;;;;;;;
2024/03/13 14:57:09;;;;;;;12.00;7.00;;;;;;;5.08;82.38;99043.36;104498;1259;107244;-77
2024/03/13 15:00:16;;;;;;;13.30;7.10;;;;;;;5.07;82.55;99047.10;104849;1263;95326;-78
2024/03/13 15:03:00;;;;;;;11.20;7.00;;;;;;;5.06;82.53;99048.23;104669;1262;95506;-78
2024/03/13 15:06:30;;;;;;;10.00;5.60;;;;;;;5.02;82.41;99045.77;104673;1264;107003;-78
2024/03/13 15:09:23;;;;;;;;;;;;;;;;;;;;;
2024/03/13 15:12:28;;;;;;;11.40;6.60;;;;;;;5.02;82.42;99050.36;105211;1263;109405;-77
2024/03/13 15:15:06;;;;;;;11.40;6.40;;;;;;;5.01;82.51;99052.31;105364;1253;95257;-80
2024/03/13 15:18:07;;;;;;;13.00;6.80;;;;;;;4.99;82.28;99054.17;105340;1254;95161;-78
2024/03/13 15:20:39;;;;;;;11.50;7.40;;;;;;;4.97;82.33;99059.76;105231;1258;108606;-78
2024/03/13 15:23:29;;;;;;;13.40;7.60;;;;;;;4.96;82.39;99057.84;105383;1258;95482;-81
2024/03/13 15:26:08;;;;;;;13.30;7.40;;;;;;;4.94;82.31;99060.77;105254;1256;107720;-77
2024/03/13 15:28:45;;;;;;;14.20;8.50;;;;;;;4.95;82.24;99064.42;105504;1253;96612;-77
2024/03/13 15:31:17;;;;;;;12.50;7.50;;;;;;;4.96;82.38;99062.95;105225;1256;96632;-75
2024/03/13 15:33:46;;;;;;;12.60;6.70;;;;;;;4.94;82.19;99065.86;105213;1257;109375;-75
2024/03/13 15:36:17;;;;;;;14.50;8.10;;;;;;;4.91;82.26;99064.95;105201;1256;96585;-75
2024/03/13 15:38:45;;;;;;;12.50;8.10;;;;;;;4.89;82.34;99068.71;105398;1256;107405;-76
2024/03/13 15:41:13;;;;;;;13.20;7.70;;;;;;;4.89;82.28;99069.61;105056;1259;97897;-76
2024/03/13 15:43:42;;;;;;;16.50;9.60;;;;;;;4.89;82.35;99072.42;105490;1255;96621;-76
2024/03/13 15:46:11;;;;;;;21.20;10.90;;;;;;;4.89;82.26;99076.80;105560;1255;109515;-80
2024/03/13 15:48:39;;;;;;;16.80;10.30;;;;;;;4.88;82.40;99080.94;105393;1256;96668;-75
2024/03/13 15:51:10;;;;;;;18.40;11.00;;;;;;;4.88;82.23;99083.36;105151;1254;107731;-74
2024/03/13 15:53:39;;;;;;;19.90;11.60;;;;;;;4.88;82.28;99085.15;105104;1258;96766;-76
2024/03/13 15:56:11;;;;;;;22.20;12.50;;;;;;;4.87;82.29;99086.57;105362;1255;96606;-75
2024/03/13 15:58:42;;;;;;;28.10;13.90;;;;;;;4.86;82.36;99087.88;105296;1256;109873;-77
2024/03/13 16:01:10;;;;;;;38.40;18.20;;;;;;;4.86;82.22;99087.88;105293;1255;96565;-76
2024/03/13 16:03:43;;;;;;;35.80;18.70;;;;;;;4.86;82.30;99087.84;105512;1256;107674;-74
2024/03/13 16:06:14;;;;;;;37.00;17.10;;;;;;;4.88;82.24;99093.39;105319;1256;97064;-77
2024/03/13 16:08:48;;;;;;;30.10;15.70;;;;;;;4.86;82.31;99088.02;105388;1256;96683;-73
2024/03/13 16:11:17;;;;;;;22.60;13.50;;;;;;;4.85;82.20;99089.84;105309;1257;108552;-73
2024/03/13 16:13:45;;;;;;;20.50;11.40;;;;;;;4.83;82.29;99088.36;105154;1256;96526;-75
2024/03/13 16:16:13;;;;;;;16.90;11.00;;;;;;;4.81;82.30;99094.77;105262;1256;107225;-75
2024/03/13 16:18:41;;;;;;;20.20;11.20;;;;;;;4.81;82.27;99095.85;105456;1252;96588;-75
2024/03/13 16:21:09;;;;;;;17.00;10.00;;;;;;;4.80;82.25;99098.02;105542;1252;96623;-76
2024/03/13 16:23:37;;;;;;;18.10;10.50;;;;;;;4.79;82.26;99100.66;105243;1253;109850;-76
2024/03/13 16:26:05;;;;;;;14.70;8.60;;;;;;;4.77;82.17;99101.27;105356;1257;96613;-77
2024/03/13 16:28:33;;;;;;;13.00;8.50;;;;;;;4.72;82.16;99103.79;105720;1256;108200;-77
2024/03/13 16:31:01;;;;;;;18.50;11.00;;;;;;;4.71;82.12;99105.46;105231;1256;97083;-75
2024/03/13 16:33:29;;;;;;;18.90;10.10;;;;;;;4.68;82.25;99106.83;105520;1258;96591;-76
2024/03/13 16:35:58;;;;;;;16.60;9.90;;;;;;;4.68;82.39;99107.54;105549;1253;109503;-77
2024/03/13 16:38:28;;;;;;;14.80;9.80;;;;;;;4.68;82.12;99114.05;105211;1257;97439;-75
2024/03/13 16:40:56;;;;;;;16.10;9.30;;;;;;;4.63;82.20;99115.13;105112;1265;107708;-75
2024/03/13 16:43:24;;;;;;;15.80;9.60;;;;;;;4.61;82.22;99116.09;105229;1256;96602;-77
2024/03/13 16:45:54;;;;;;;17.30;9.00;;;;;;;4.56;82.25;99119.82;105619;1253;96610;-77
2024/03/13 16:48:22;;;;;;;17.00;9.50;;;;;;;4.56;82.27;99122.16;105225;1258;109513;-76
2024/03/13 16:50:50;;;;;;;14.70;9.30;;;;;;;4.55;82.24;99125.70;105680;1254;97411;-79
2024/03/13 16:53:18;;;;;;;19.10;10.40;;;;;;;4.54;82.18;99126.42;105231;1253;107378;-78
2024/03/13 16:55:56;;;;;;;15.30;8.90;;;;;;;4.53;82.17;99133.52;105670;1256;97148;-80
2024/03/13 16:58:29;;;;;;;15.30;9.00;;;;;;;4.51;82.21;99139.55;105333;1255;96618;-79
2024/03/13 17:00:57;;;;;;;16.40;9.80;;;;;;;4.49;82.18;99139.84;105641;1256;109928;-79
2024/03/13 17:03:27;;;;;;;13.40;9.10;;;;;;;4.46;82.16;99137.52;105464;1256;96610;-78
2024/03/13 17:05:56;;;;;;;17.90;10.50;;;;;;;4.44;82.22;99138.98;105380;1256;107624;-79
2024/03/13 17:08:23;;;;;;;14.60;8.80;;;;;;;4.44;82.31;99140.93;105232;1256;96684;-79
2024/03/13 17:10:51;;;;;;;18.10;10.40;;;;;;;4.46;82.18;99142.61;105421;1253;96948;-78
2024/03/13 17:13:19;;;;;;;25.60;14.10;;;;;;;4.44;82.37;99140.05;105439;1256;109571;-82
2024/03/13 17:15:47;;;;;;;23.40;13.00;;;;;;;4.45;82.32;99142.12;105612;1253;96591;-78
2024/03/13 17:18:15;;;;;;;20.10;12.60;;;;;;;4.44;82.38;99142.88;105257;1256;108321;-78
2024/03/13 17:20:44;;;;;;;20.50;11.80;;;;;;;4.45;82.32;99140.72;105462;1256;97032;-78
2024/03/13 17:23:12;;;;;;;21.90;12.60;;;;;;;4.46;82.49;99140.67;105613;1258;96606;-77
2024/03/13 17:25:42;;;;;;;21.20;12.90;;;;;;;4.47;82.40;99141.48;105467;1254;110440;-82
2024/03/13 17:28:10;;;;;;;30.30;15.20;;;;;;;4.47;82.32;99144.86;105538;1256;96549;-77
2024/03/13 17:30:38;;;;;;;22.70;13.10;;;;;;;4.45;82.32;99149.30;105421;1252;107462;-78
2024/03/13 17:33:06;;;;;;;25.70;15.40;;;;;;;4.44;82.36;99153.74;105495;1256;96580;-78
2024/03/13 17:35:34;;;;;;;26.20;15.60;;;;;;;4.42;82.40;99153.66;105690;1251;97297;-77
2024/03/13 17:38:02;;;;;;;27.70;15.30;;;;;;;4.41;82.31;99159.32;105670;1255;109552;-77
2024/03/13 17:40:30;;;;;;;26.50;15.50;;;;;;;4.41;82.47;99158.28;105717;1253;96636;-78
2024/03/13 17:42:58;;;;;;;31.70;18.70;;;;;;;4.42;82.37;99156.34;105375;1269;107263;-75
2024/03/13 17:45:26;;;;;;;29.60;18.00;;;;;;;4.39;82.38;99157.48;105311;1256;96517;-76
2024/03/13 17:47:56;;;;;;;34.40;18.30;;;;;;;4.40;82.49;99156.91;105499;1255;97445;-77
2024/03/13 17:50:24;;;;;;;30.70;15.80;;;;;;;4.41;82.50;99155.11;105493;1255;109923;-73
2024/03/13 17:52:54;;;;;;;28.90;15.50;;;;;;;4.42;82.59;99158.77;105520;1256;96745;-76
2024/03/13 17:55:22;;;;;;;24.20;13.60;;;;;;;4.43;82.40;99154.36;105516;1253;107225;-75
2024/03/13 17:57:51;;;;;;;24.20;13.90;;;;;;;4.43;82.43;99157.52;105450;1259;96727;-80
2024/03/13 18:00:19;;;;;;;27.80;16.30;;;;;;;4.42;82.33;99158.09;105254;1256;96556;-77
2024/03/13 18:02:48;;;;;;;28.60;16.80;;;;;;;4.41;82.39;99162.70;105648;1255;108794;-79
2024/03/13 18:05:25;;;;;;;32.00;16.10;;;;;;;4.40;82.61;99161.16;105435;1256;96575;-78
2024/03/13 18:07:53;;;;;;;28.50;14.60;;;;;;;4.41;82.52;99161.98;105575;1256;107549;-77
2024/03/13 18:10:23;;;;;;;27.90;14.40;;;;;;;4.42;82.46;99164.92;105337;1255;96702;-78
2024/03/13 18:12:52;;;;;;;28.60;15.60;;;;;;;4.42;82.54;99165.78;105562;1255;96618;-79
2024/03/13 18:15:20;;;;;;;29.50;16.40;;;;;;;4.44;82.61;99165.38;105544;1256;109858;-80
2024/03/13 18:17:50;;;;;;;29.90;16.70;;;;;;;4.43;82.43;99169.27;105460;1256;96586;-80
2024/03/13 18:20:18;;;;;;;34.90;18.40;;;;;;;4.42;82.51;99173.52;105449;1256;107631;-77
2024/03/13 18:22:47;;;;;;;35.60;18.60;;;;;;;4.41;82.40;99177.40;105540;1253;96603;-80
2024/03/13 18:25:17;;;;;;;29.30;16.50;;;;;;;4.38;82.42;99176.50;105452;1259;96658;-78
2024/03/13 18:27:45;;;;;;;29.50;14.80;;;;;;;4.36;82.45;99175.39;105691;1256;108479;-78
2024/03/13 18:30:15;;;;;;;25.70;14.90;;;;;;;4.34;82.41;99178.08;105340;1253;97928;-79
2024/03/13 18:32:43;;;;;;;31.40;16.50;;;;;;;4.32;82.42;99175.89;105539;1256;106430;-78
2024/03/13 18:35:14;;;;;;;30.50;16.50;;;;;;;4.32;82.47;99181.70;105417;1256;96598;-79
2024/03/13 18:37:43;;;;;;;26.70;15.40;;;;;;;4.35;82.64;99181.56;105607;1253;97951;-82
2024/03/13 18:40:15;;;;;;;29.40;15.90;;;;;;;4.35;82.43;99179.47;105506;1253;109709;-78
2024/03/13 18:42:44;;;;;;;29.20;15.50;;;;;;;4.33;82.43;99185.16;105536;1256;96576;-77
2024/03/13 18:45:13;;;;;;;28.30;16.60;;;;;;;4.32;82.46;99184.69;105484;1256;108303;-81
2024/03/13 18:47:42;;;;;;;29.90;17.70;;;;;;;4.31;82.43;99182.44;105439;1253;96630;-76
2024/03/13 18:50:11;;;;;;;30.30;17.20;;;;;;;4.32;82.50;99181.52;105550;1251;96659;-77
2024/03/13 18:52:42;;;;;;;29.30;16.30;;;;;;;4.32;82.30;99183.45;105550;1254;109953;-79
2024/03/13 18:55:11;;;;;;;27.70;16.60;;;;;;;4.31;82.52;99183.46;105463;1256;96698;-74
2024/03/13 18:57:39;;;;;;;23.60;13.80;;;;;;;4.31;82.43;99188.05;105853;1256;105606;-70
2024/03/13 19:00:09;;;;;;;24.20;13.80;;;;;;;4.30;82.49;99187.02;105517;1259;96618;-71
2024/03/13 19:02:37;;;;;;;23.00;13.00;;;;;;;4.30;82.38;99183.54;105729;1259;96601;-71
2024/03/13 19:05:05;;;;;;;44.40;24.00;;;;;;;4.30;82.55;99181.23;105615;1256;109132;-72
2024/03/13 19:07:46;;;;;;;35.60;19.50;;;;;;;4.30;82.50;99180.38;105442;1256;96590;-71
2024/03/13 19:10:13;;;;;;;26.20;15.50;;;;;;;4.29;82.46;99183.21;105204;1256;107640;-74
2024/03/13 19:12:41;;;;;;;27.70;15.10;;;;;;;4.31;82.55;99185.92;105159;1258;96682;-74
2024/03/13 19:15:10;;;;;;;27.70;17.50;;;;;;;4.33;82.73;99182.52;105448;1256;96600;-74
2024/03/13 19:17:38;;;;;;;33.30;18.30;;;;;;;4.33;82.49;99182.16;105168;1254;109006;-79
2024/03/13 19:20:08;;;;;;;29.00;16.50;;;;;;;4.32;82.51;99181.51;105396;1256;96518;-74
2024/03/13 19:22:36;;;;;;;31.70;17.50;;;;;;;4.34;82.53;99181.27;105390;1270;106331;-76
2024/03/13 19:25:05;;;;;;;33.70;17.20;;;;;;;4.36;82.66;99182.41;105243;1257;97467;-75
2024/03/13 19:27:33;;;;;;;35.00;17.70;;;;;;;4.36;82.59;99185.40;105291;1256;96620;-74
2024/03/13 19:30:00;;;;;;;33.70;17.60;;;;;;;4.36;82.64;99186.60;105492;1259;108820;-76
2024/03/13 19:32:29;;;;;;;38.80;20.20;;;;;;;4.38;82.75;99189.16;105628;1266;96473;-76
2024/03/13 19:34:57;;;;;;;39.70;20.20;;;;;;;4.38;82.60;99186.34;105617;1257;107666;-74
2024/03/13 19:37:25;;;;;;;28.90;17.00;;;;;;;4.35;82.47;99186.98;105346;1253;97602;-76
2024/03/13 19:39:54;;;;;;;30.50;16.20;;;;;;;4.32;82.54;99186.77;105390;1256;97925;-75
2024/03/13 19:42:22;;;;;;;23.10;14.50;;;;;;;4.33;82.58;99189.02;105550;1254;110012;-75
2024/03/13 19:44:50;;;;;;;26.20;15.60;;;;;;;4.31;82.54;99187.71;105564;1255;97537;-75
2024/03/13 19:47:18;;;;;;;26.40;14.70;;;;;;;4.29;82.46;99190.97;105274;1259;107103;-76
2024/03/13 19:49:59;;;;;;;28.40;14.00;;;;;;;4.27;82.51;99194.73;105475;1256;96703;-76
2024/03/13 19:53:38;;;;;;;;;;;;;;;;;;;;;
2024/03/13 19:56:53;;;;;;;29.40;15.90;;;;;;;4.23;82.55;99193.85;105833;1253;110421;-79
2024/03/13 19:59:56;;;;;;;26.90;14.50;;;;;;;4.20;82.50;99193.63;105563;1257;97525;-75
2024/03/13 20:02:24;;;;;;;29.60;16.90;;;;;;;4.20;82.71;99194.35;105453;1267;107751;-77
2024/03/13 20:04:55;;;;;;;29.40;15.90;;;;;;;4.21;82.62;99196.07;105427;1256;97907;-76
2024/03/13 20:07:23;;;;;;;37.90;18.20;;;;;;;4.22;82.59;99196.70;106131;1255;96612;-77
2024/03/13 20:09:53;;;;;;;32.40;18.90;;;;;;;4.23;82.66;99188.77;105804;1256;110603;-79
2024/03/13 20:12:33;;;;;;;34.40;19.60;;;;;;;4.24;82.68;99192.95;105617;1252;96513;-76
2024/03/13 20:15:19;;;;;;;33.90;17.80;;;;;;;4.25;82.63;99193.08;105501;1264;107499;-78
2024/03/13 20:17:48;;;;;;;31.70;18.10;;;;;;;4.24;82.78;99192.76;105473;1258;96597;-77
2024/03/13 20:20:24;;;;;;;31.70;17.20;;;;;;;4.27;82.67;99197.58;105400;1256;98362;-79
2024/03/13 20:22:55;;;;;;;31.70;17.70;;;;;;;4.30;82.69;99197.77;105556;1256;109803;-77
2024/03/13 20:25:26;;;;;;;27.70;16.20;;;;;;;4.29;82.62;99195.54;105628;1256;96705;-78
2024/03/13 20:27:55;;;;;;;33.10;17.90;;;;;;;4.27;82.64;99191.20;105629;1256;109902;-77
2024/03/13 20:30:23;;;;;;;29.70;17.40;;;;;;;4.27;82.76;99192.63;105572;1257;96606;-79
2024/03/13 20:32:57;;;;;;;30.80;16.90;;;;;;;4.29;82.79;99194.98;105536;1256;97533;-76
2024/03/13 20:35:32;;;;;;;33.30;16.80;;;;;;;4.31;82.64;99191.90;105501;1253;109690;-76
2024/03/13 20:38:01;;;;;;;27.20;15.70;;;;;;;4.33;82.83;99188.84;105667;1251;96626;-76
2024/03/13 20:40:32;;;;;;;27.10;17.60;;;;;;;4.34;82.70;99192.33;105297;1256;108230;-76
2024/03/13 20:43:08;;;;;;;31.40;17.40;;;;;;;4.36;82.62;99194.35;105697;1253;96641;-77
2024/03/13 20:45:38;;;;;;;33.60;17.00;;;;;;;4.35;82.62;99189.46;105281;1258;97915;-79
2024/03/13 20:48:10;;;;;;;29.10;16.50;;;;;;;4.33;82.69;99189.91;105615;1255;109424;-76
2024/03/13 20:50:42;;;;;;;28.20;17.00;;;;;;;4.32;82.84;99188.70;105541;1256;96850;-77
2024/03/13 20:53:13;;;;;;;28.30;16.20;;;;;;;4.33;82.84;99186.03;105190;1256;107628;-78
2024/03/13 20:55:42;;;;;;;41.30;22.10;;;;;;;4.34;82.81;99188.64;105559;1257;96616;-77
2024/03/13 20:58:10;;;;;;;40.20;20.50;;;;;;;4.34;82.67;99190.23;105513;1257;97529;-77
2024/03/13 21:00:44;;;;;;;29.90;16.80;;;;;;;4.31;82.73;99190.69;105295;1257;110450;-78
2024/03/13 21:03:17;;;;;;;28.90;15.20;;;;;;;4.32;82.78;99191.67;105445;1256;96578;-78
2024/03/13 21:05:46;;;;;;;29.90;15.20;;;;;;;4.31;82.75;99192.09;105239;1256;110235;-78
2024/03/13 21:08:14;;;;;;;23.60;14.20;;;;;;;4.32;82.81;99194.31;106509;1256;97537;-76
2024/03/13 21:10:50;;;;;;;23.50;14.80;;;;;;;4.35;82.89;99192.46;105382;1256;96523;-76
2024/03/13 21:13:26;;;;;;;27.10;14.30;;;;;;;4.36;82.76;99186.80;105517;1257;109851;-77
2024/03/13 21:15:54;;;;;;;27.50;14.90;;;;;;;4.36;82.91;99191.19;105255;1274;96613;-78
2024/03/13 21:18:37;;;;;;;24.40;14.20;;;;;;;4.35;82.87;99187.56;105304;1256;107692;-76
2024/03/13 21:21:23;;;;;;;24.30;14.30;;;;;;;4.33;82.80;99189.23;105235;1258;97069;-76
2024/03/13 21:23:53;;;;;;;28.00;14.10;;;;;;;4.30;82.76;99188.95;105574;1256;97004;-75
2024/03/13 21:26:22;;;;;;;24.90;15.40;;;;;;;4.32;82.87;99193.80;105533;1256;110008;-76
2024/03/13 21:28:52;;;;;;;24.00;15.20;;;;;;;4.30;82.79;99194.25;105487;1264;97531;-77
2024/03/13 21:31:25;;;;;;;24.60;14.50;;;;;;;4.30;82.73;99192.15;105269;1267;106602;-76
2024/03/13 21:33:58;;;;;;;24.10;14.30;;;;;;;4.28;82.77;99188.16;105289;1256;96693;-77
2024/03/13 21:36:34;;;;;;;23.80;14.80;;;;;;;4.27;82.81;99191.19;105451;1251;96591;-77
2024/03/13 21:39:09;;;;;;;25.30;13.90;;;;;;;4.26;82.82;99187.95;105362;1256;110016;-75
2024/03/13 21:41:40;;;;;;;23.50;15.10;;;;;;;4.27;82.89;99188.60;105307;1253;96644;-79
2024/03/13 21:44:14;;;;;;;24.10;13.60;;;;;;;4.28;82.77;99187.67;105204;1256;107631;-77
2024/03/13 21:46:43;;;;;;;26.10;14.30;;;;;;;4.27;82.74;99188.40;105428;1256;96655;-78
2024/03/13 21:49:14;;;;;;;26.20;13.50;;;;;;;4.25;82.65;99185.55;105529;1257;96677;-76
2024/03/13 21:51:45;;;;;;;27.70;14.60;;;;;;;4.21;82.68;99186.05;105663;1255;109815;-76
2024/03/13 21:54:19;;;;;;;22.40;13.00;;;;;;;4.19;82.76;99186.67;105493;1264;96665;-77
2024/03/13 21:56:49;;;;;;;27.10;15.00;;;;;;;4.17;82.68;99184.46;105222;1257;108311;-77
2024/03/13 21:59:18;;;;;;;29.60;15.20;;;;;;;4.15;82.69;99185.61;105238;1267;96630;-77
2024/03/13 22:01:46;;;;;;;22.80;13.00;;;;;;;4.15;82.70;99188.61;105683;1256;96689;-78
2024/03/13 22:04:15;;;;;;;29.10;15.50;;;;;;;4.15;82.76;99187.33;105308;1256;112318;-77
2024/03/13 22:06:43;;;;;;;28.40;15.40;;;;;;;4.15;82.69;99183.51;105259;1256;97393;-78
2024/03/13 22:09:14;;;;;;;28.10;14.20;;;;;;;4.14;82.69;99183.16;105414;1256;108153;-78
2024/03/13 22:12:05;;;;;;;27.90;14.00;;;;;;;4.14;82.86;99187.03;105372;1272;96608;-77
2024/03/13 22:14:45;;;;;;;26.90;14.00;;;;;;;4.14;82.79;99188.46;105319;1254;96710;-77
2024/03/13 22:17:16;;;;;;;27.70;14.10;;;;;;;4.13;82.72;99187.09;105355;1267;111400;-77
2024/03/13 22:19:48;;;;;;;24.10;13.80;;;;;;;4.11;82.69;99183.68;105357;1254;97193;-78
2024/03/13 22:22:16;;;;;;;28.00;13.80;;;;;;;4.10;82.71;99187.58;105490;1255;107437;-77
2024/03/13 22:24:49;;;;;;;28.90;13.90;;;;;;;4.11;82.65;99186.48;105594;1264;98012;-78
2024/03/13 22:27:29;;;;;;;29.50;13.60;;;;;;;4.09;82.49;99184.80;105307;1257;97407;-79